sensor_id;sensor_type;location;lat;lon;timestamp;temperature;humidity
26954;DHT22;14508;50.924;11.600;2023-05-10T00:01:55;12.40;83.40
26954;DHT22;14508;50.924;11.600;2023-05-10T00:04:23;12.40;83.50
26954;DHT22;14508;50.924;11.600;2023-05-10T00:06:54;12.50;83.80
26954;DHT22;14508;50.924;11.600;2023-05-10T00:09:21;12.50;84.20
26954;DHT22;14508;50.924;11.600;2023-05-10T00:11:49;12.50;85.00
26954;DHT22;14508;50.924;11.600;2023-05-10T00:14:17;12.50;85.30
26954;DHT22;14508;50.924;11.600;2023-05-10T00:16:46;12.50;85.80
26954;DHT22;14508;50.924;11.600;2023-05-10T00:19:14;12.50;86.40
26954;DHT22;14508;50.924;11.600;2023-05-10T00:21:42;12.50;86.70
26954;DHT22;14508;50.924;11.600;2023-05-10T00:24:10;12.50;86.50
26954;DHT22;14508;50.924;11.600;2023-05-10T00:26:38;12.40;87.20
26954;DHT22;14508;50.924;11.600;2023-05-10T00:29:06;12.40;87.80
26954;DHT22;14508;50.924;11.600;2023-05-10T00:31:34;12.40;88.20
26954;DHT22;14508;50.924;11.600;2023-05-10T00:34:03;12.40;88.80
26954;DHT22;14508;50.924;11.600;2023-05-10T00:36:31;12.30;89.10
26954;DHT22;14508;50.924;11.600;2023-05-10T00:38:59;12.30;89.10
26954;DHT22;14508;50.924;11.600;2023-05-10T00:41:27;12.30;89.70
26954;DHT22;14508;50.924;11.600;2023-05-10T00:43:55;12.30;90.20
26954;DHT22;14508;50.924;11.600;2023-05-10T00:46:23;12.30;90.10
26954;DHT22;14508;50.924;11.600;2023-05-10T00:48:51;12.30;90.40
26954;DHT22;14508;50.924;11.600;2023-05-10T00:51:21;12.30;90.70
26954;DHT22;14508;50.924;11.600;2023-05-10T00:53:49;12.30;91.00
26954;DHT22;14508;50.924;11.600;2023-05-10T00:56:18;12.30;91.20
26954;DHT22;14508;50.924;11.600;2023-05-10T00:58:47;12.30;91.50
26954;DHT22;14508;50.924;11.600;2023-05-10T01:01:14;12.30;91.50
26954;DHT22;14508;50.924;11.600;2023-05-10T01:03:43;12.30;91.60
26954;DHT22;14508;50.924;11.600;2023-05-10T01:06:11;12.30;91.70
26954;DHT22;14508;50.924;11.600;2023-05-10T01:08:40;12.30;91.60
26954;DHT22;14508;50.924;11.600;2023-05-10T01:11:08;12.30;91.80
26954;DHT22;14508;50.924;11.600;2023-05-10T01:13:38;12.30;92.00
26954;DHT22;14508;50.924;11.600;2023-05-10T01:16:06;12.30;91.90
26954;DHT22;14508;50.924;11.600;2023-05-10T01:18:37;12.30;92.00
26954;DHT22;14508;50.924;11.600;2023-05-10T01:21:14;12.40;92.20
26954;DHT22;14508;50.924;11.600;2023-05-10T01:24:12;12.40;91.90
26954;DHT22;14508;50.924;11.600;2023-05-10T01:27:07;12.50;92.10
26954;DHT22;14508;50.924;11.600;2023-05-10T01:30:01;12.50;92.00
26954;DHT22;14508;50.924;11.600;2023-05-10T01:32:48;12.50;91.50
26954;DHT22;14508;50.924;11.600;2023-05-10T01:35:26;12.60;91.20
26954;DHT22;14508;50.924;11.600;2023-05-10T01:38:05;12.60;91.00
26954;DHT22;14508;50.924;11.600;2023-05-10T01:40:39;12.70;90.50
26954;DHT22;14508;50.924;11.600;2023-05-10T01:43:17;12.80;90.40
26954;DHT22;14508;50.924;11.600;2023-05-10T01:45:54;12.80;90.40
26954;DHT22;14508;50.924;11.600;2023-05-10T01:48:27;12.80;90.20
26954;DHT22;14508;50.924;11.600;2023-05-10T01:50:56;12.90;89.80
26954;DHT22;14508;50.924;11.600;2023-05-10T01:53:26;12.90;89.10
26954;DHT22;14508;50.924;11.600;2023-05-10T01:55:55;12.90;88.50
26954;DHT22;14508;50.924;11.600;2023-05-10T01:58:28;12.90;88.20
26954;DHT22;14508;50.924;11.600;2023-05-10T02:00:59;13.00;88.50
26954;DHT22;14508;50.924;11.600;2023-05-10T02:03:30;13.00;88.90
26954;DHT22;14508;50.924;11.600;2023-05-10T02:05:59;13.00;88.50
26954;DHT22;14508;50.924;11.600;2023-05-10T02:08:28;13.00;87.80
26954;DHT22;14508;50.924;11.600;2023-05-10T02:10:58;13.00;87.10
26954;DHT22;14508;50.924;11.600;2023-05-10T02:13:27;13.10;86.50
26954;DHT22;14508;50.924;11.600;2023-05-10T02:15:57;13.10;87.20
26954;DHT22;14508;50.924;11.600;2023-05-10T02:18:28;13.10;88.10
26954;DHT22;14508;50.924;11.600;2023-05-10T02:20:58;13.20;88.50
26954;DHT22;14508;50.924;11.600;2023-05-10T02:23:28;13.20;88.80
26954;DHT22;14508;50.924;11.600;2023-05-10T02:25:57;13.20;89.00
26954;DHT22;14508;50.924;11.600;2023-05-10T02:28:28;13.20;88.50
26954;DHT22;14508;50.924;11.600;2023-05-10T02:30:57;13.20;88.20
26954;DHT22;14508;50.924;11.600;2023-05-10T02:33:26;13.20;87.90
26954;DHT22;14508;50.924;11.600;2023-05-10T02:35:55;13.20;86.80
26954;DHT22;14508;50.924;11.600;2023-05-10T02:38:25;13.30;86.40
26954;DHT22;14508;50.924;11.600;2023-05-10T02:40:53;13.30;85.40
26954;DHT22;14508;50.924;11.600;2023-05-10T02:43:23;13.40;84.70
26954;DHT22;14508;50.924;11.600;2023-05-10T02:45:51;13.40;83.00
26954;DHT22;14508;50.924;11.600;2023-05-10T02:48:19;13.50;81.60
26954;DHT22;14508;50.924;11.600;2023-05-10T02:50:47;13.50;80.80
26954;DHT22;14508;50.924;11.600;2023-05-10T02:53:22;13.60;80.20
26954;DHT22;14508;50.924;11.600;2023-05-10T02:55:52;13.60;80.10
26954;DHT22;14508;50.924;11.600;2023-05-10T02:58:20;13.60;79.70
26954;DHT22;14508;50.924;11.600;2023-05-10T03:00:49;13.60;79.50
26954;DHT22;14508;50.924;11.600;2023-05-10T03:03:17;13.60;79.20
26954;DHT22;14508;50.924;11.600;2023-05-10T03:05:45;13.70;79.20
26954;DHT22;14508;50.924;11.600;2023-05-10T03:08:12;13.70;79.40
26954;DHT22;14508;50.924;11.600;2023-05-10T03:10:59;13.70;80.00
26954;DHT22;14508;50.924;11.600;2023-05-10T03:13:34;13.60;80.50
26954;DHT22;14508;50.924;11.600;2023-05-10T03:16:08;13.60;80.80
26954;DHT22;14508;50.924;11.600;2023-05-10T03:18:43;13.60;80.90
26954;DHT22;14508;50.924;11.600;2023-05-10T03:21:13;13.60;81.40
26954;DHT22;14508;50.924;11.600;2023-05-10T03:23:50;13.60;81.70
26954;DHT22;14508;50.924;11.600;2023-05-10T03:26:24;13.60;82.30
26954;DHT22;14508;50.924;11.600;2023-05-10T03:29:00;13.50;83.40
26954;DHT22;14508;50.924;11.600;2023-05-10T03:31:29;13.60;84.50
26954;DHT22;14508;50.924;11.600;2023-05-10T03:33:57;13.60;84.90
26954;DHT22;14508;50.924;11.600;2023-05-10T03:36:26;13.60;85.30
26954;DHT22;14508;50.924;11.600;2023-05-10T03:38:54;13.60;85.50
26954;DHT22;14508;50.924;11.600;2023-05-10T03:41:24;13.50;85.20
26954;DHT22;14508;50.924;11.600;2023-05-10T03:43:53;13.50;84.40
26954;DHT22;14508;50.924;11.600;2023-05-10T03:46:21;13.50;84.40
26954;DHT22;14508;50.924;11.600;2023-05-10T03:48:49;13.60;84.70
26954;DHT22;14508;50.924;11.600;2023-05-10T03:51:17;13.60;85.30
26954;DHT22;14508;50.924;11.600;2023-05-10T03:53:45;13.60;85.60
26954;DHT22;14508;50.924;11.600;2023-05-10T03:56:13;13.60;85.00
26954;DHT22;14508;50.924;11.600;2023-05-10T03:58:42;13.70;84.90
26954;DHT22;14508;50.924;11.600;2023-05-10T04:01:10;13.70;84.80
26954;DHT22;14508;50.924;11.600;2023-05-10T04:03:38;13.70;85.20
26954;DHT22;14508;50.924;11.600;2023-05-10T04:06:06;13.70;85.60
26954;DHT22;14508;50.924;11.600;2023-05-10T04:08:35;13.80;86.20
26954;DHT22;14508;50.924;11.600;2023-05-10T04:11:07;13.80;86.50
26954;DHT22;14508;50.924;11.600;2023-05-10T04:13:35;13.80;86.20
26954;DHT22;14508;50.924;11.600;2023-05-10T04:16:05;13.80;86.00
26954;DHT22;14508;50.924;11.600;2023-05-10T04:18:33;13.80;84.50
26954;DHT22;14508;50.924;11.600;2023-05-10T04:21:01;13.80;83.50
26954;DHT22;14508;50.924;11.600;2023-05-10T04:23:29;13.90;82.90
26954;DHT22;14508;50.924;11.600;2023-05-10T04:26:00;13.90;82.50
26954;DHT22;14508;50.924;11.600;2023-05-10T04:28:28;14.00;82.60
26954;DHT22;14508;50.924;11.600;2023-05-10T04:31:01;14.00;81.80
26954;DHT22;14508;50.924;11.600;2023-05-10T04:33:31;14.00;80.70
26954;DHT22;14508;50.924;11.600;2023-05-10T04:35:59;14.10;80.30
26954;DHT22;14508;50.924;11.600;2023-05-10T04:38:28;14.10;79.00
26954;DHT22;14508;50.924;11.600;2023-05-10T04:41:04;14.20;78.30
26954;DHT22;14508;50.924;11.600;2023-05-10T04:43:32;14.20;78.40
26954;DHT22;14508;50.924;11.600;2023-05-10T04:46:00;14.20;77.50
26954;DHT22;14508;50.924;11.600;2023-05-10T04:48:29;14.30;77.50
26954;DHT22;14508;50.924;11.600;2023-05-10T04:50:57;14.30;77.70
26954;DHT22;14508;50.924;11.600;2023-05-10T04:53:25;14.40;77.30
26954;DHT22;14508;50.924;11.600;2023-05-10T04:55:53;14.40;77.30
26954;DHT22;14508;50.924;11.600;2023-05-10T04:58:21;14.40;77.60
26954;DHT22;14508;50.924;11.600;2023-05-10T05:00:49;14.50;77.40
26954;DHT22;14508;50.924;11.600;2023-05-10T05:03:17;14.50;77.00
26954;DHT22;14508;50.924;11.600;2023-05-10T05:05:46;14.60;76.90
26954;DHT22;14508;50.924;11.600;2023-05-10T05:08:14;14.60;77.30
26954;DHT22;14508;50.924;11.600;2023-05-10T05:10:42;14.60;76.80
26954;DHT22;14508;50.924;11.600;2023-05-10T05:13:12;14.70;76.60
26954;DHT22;14508;50.924;11.600;2023-05-10T05:15:40;14.70;76.20
26954;DHT22;14508;50.924;11.600;2023-05-10T05:18:08;14.70;76.30
26954;DHT22;14508;50.924;11.600;2023-05-10T05:20:36;14.70;76.50
26954;DHT22;14508;50.924;11.600;2023-05-10T05:23:05;14.80;77.20
26954;DHT22;14508;50.924;11.600;2023-05-10T05:25:33;14.80;76.80
26954;DHT22;14508;50.924;11.600;2023-05-10T05:28:02;14.80;76.90
26954;DHT22;14508;50.924;11.600;2023-05-10T05:30:30;14.90;77.40
26954;DHT22;14508;50.924;11.600;2023-05-10T05:32:58;14.90;77.60
26954;DHT22;14508;50.924;11.600;2023-05-10T05:35:26;15.00;77.60
26954;DHT22;14508;50.924;11.600;2023-05-10T05:37:53;15.00;78.10
26954;DHT22;14508;50.924;11.600;2023-05-10T05:40:23;15.10;78.30
26954;DHT22;14508;50.924;11.600;2023-05-10T05:42:51;15.10;78.30
26954;DHT22;14508;50.924;11.600;2023-05-10T05:45:19;15.20;77.70
26954;DHT22;14508;50.924;11.600;2023-05-10T05:47:47;15.30;77.20
26954;DHT22;14508;50.924;11.600;2023-05-10T05:50:15;15.30;76.80
26954;DHT22;14508;50.924;11.600;2023-05-10T05:52:43;15.40;76.50
26954;DHT22;14508;50.924;11.600;2023-05-10T05:55:11;15.40;76.60
26954;DHT22;14508;50.924;11.600;2023-05-10T05:57:41;15.40;76.80
26954;DHT22;14508;50.924;11.600;2023-05-10T06:00:09;15.50;77.30
26954;DHT22;14508;50.924;11.600;2023-05-10T06:02:40;15.50;77.40
26954;DHT22;14508;50.924;11.600;2023-05-10T06:05:11;15.50;77.20
26954;DHT22;14508;50.924;11.600;2023-05-10T06:07:41;15.50;76.90
26954;DHT22;14508;50.924;11.600;2023-05-10T06:10:09;15.50;76.90
26954;DHT22;14508;50.924;11.600;2023-05-10T06:12:37;15.50;77.60
26954;DHT22;14508;50.924;11.600;2023-05-10T06:15:08;15.50;77.80
26954;DHT22;14508;50.924;11.600;2023-05-10T06:17:36;15.60;77.90
26954;DHT22;14508;50.924;11.600;2023-05-10T06:20:06;15.70;78.00
26954;DHT22;14508;50.924;11.600;2023-05-10T06:22:34;15.70;78.10
26954;DHT22;14508;50.924;11.600;2023-05-10T06:25:03;15.70;77.70
26954;DHT22;14508;50.924;11.600;2023-05-10T06:27:30;15.70;77.30
26954;DHT22;14508;50.924;11.600;2023-05-10T06:29:59;15.70;77.10
26954;DHT22;14508;50.924;11.600;2023-05-10T06:32:39;15.70;77.60
26954;DHT22;14508;50.924;11.600;2023-05-10T06:35:08;15.70;77.50
26954;DHT22;14508;50.924;11.600;2023-05-10T06:37:36;15.70;78.10
26954;DHT22;14508;50.924;11.600;2023-05-10T06:40:05;15.70;78.70
26954;DHT22;14508;50.924;11.600;2023-05-10T06:42:33;15.70;78.70
26954;DHT22;14508;50.924;11.600;2023-05-10T06:45:02;15.60;78.90
26954;DHT22;14508;50.924;11.600;2023-05-10T06:47:30;15.60;79.40
26954;DHT22;14508;50.924;11.600;2023-05-10T06:50:00;15.60;79.80
26954;DHT22;14508;50.924;11.600;2023-05-10T06:52:28;15.60;80.90
26954;DHT22;14508;50.924;11.600;2023-05-10T06:54:56;15.60;82.50
26954;DHT22;14508;50.924;11.600;2023-05-10T06:57:24;15.60;84.20
26954;DHT22;14508;50.924;11.600;2023-05-10T06:59:58;15.50;85.80
26954;DHT22;14508;50.924;11.600;2023-05-10T07:02:26;15.50;87.80
26954;DHT22;14508;50.924;11.600;2023-05-10T07:04:55;15.50;89.10
26954;DHT22;14508;50.924;11.600;2023-05-10T07:07:27;15.40;90.50
26954;DHT22;14508;50.924;11.600;2023-05-10T07:09:55;15.40;91.60
26954;DHT22;14508;50.924;11.600;2023-05-10T07:12:24;15.40;92.30
26954;DHT22;14508;50.924;11.600;2023-05-10T07:14:52;15.40;92.80
26954;DHT22;14508;50.924;11.600;2023-05-10T07:17:20;15.30;94.00
26954;DHT22;14508;50.924;11.600;2023-05-10T07:19:48;15.30;94.80
26954;DHT22;14508;50.924;11.600;2023-05-10T07:22:16;15.30;95.60
26954;DHT22;14508;50.924;11.600;2023-05-10T07:24:45;15.40;97.80
26954;DHT22;14508;50.924;11.600;2023-05-10T07:27:13;15.40;99.60
26954;DHT22;14508;50.924;11.600;2023-05-10T07:29:41;15.50;99.90
26954;DHT22;14508;50.924;11.600;2023-05-10T07:32:09;15.70;99.90
26954;DHT22;14508;50.924;11.600;2023-05-10T07:34:37;15.90;99.90
26954;DHT22;14508;50.924;11.600;2023-05-10T07:37:04;16.00;99.90
26954;DHT22;14508;50.924;11.600;2023-05-10T07:39:32;16.10;99.90
26954;DHT22;14508;50.924;11.600;2023-05-10T07:42:02;16.10;99.90
26954;DHT22;14508;50.924;11.600;2023-05-10T07:44:30;16.20;99.90
26954;DHT22;14508;50.924;11.600;2023-05-10T07:46:58;16.20;99.90
26954;DHT22;14508;50.924;11.600;2023-05-10T07:49:26;16.20;99.90
26954;DHT22;14508;50.924;11.600;2023-05-10T07:51:54;16.20;99.90
26954;DHT22;14508;50.924;11.600;2023-05-10T07:54:22;16.10;99.90
26954;DHT22;14508;50.924;11.600;2023-05-10T07:56:51;16.10;99.90
26954;DHT22;14508;50.924;11.600;2023-05-10T07:59:20;16.00;99.90
26954;DHT22;14508;50.924;11.600;2023-05-10T08:01:48;16.10;99.90
26954;DHT22;14508;50.924;11.600;2023-05-10T08:04:16;16.10;99.90
26954;DHT22;14508;50.924;11.600;2023-05-10T08:06:44;16.20;99.90
26954;DHT22;14508;50.924;11.600;2023-05-10T08:09:11;16.40;99.90
26954;DHT22;14508;50.924;11.600;2023-05-10T08:11:39;16.40;99.90
26954;DHT22;14508;50.924;11.600;2023-05-10T08:14:07;16.50;99.90
26954;DHT22;14508;50.924;11.600;2023-05-10T08:16:36;16.60;99.90
26954;DHT22;14508;50.924;11.600;2023-05-10T08:22:22;16.80;99.90
26954;DHT22;14508;50.924;11.600;2023-05-10T08:24:50;16.90;99.90
26954;DHT22;14508;50.924;11.600;2023-05-10T08:27:18;16.90;99.90
26954;DHT22;14508;50.924;11.600;2023-05-10T08:29:46;17.00;99.90
26954;DHT22;14508;50.924;11.600;2023-05-10T08:32:17;17.10;99.90
26954;DHT22;14508;50.924;11.600;2023-05-10T08:34:45;17.10;99.90
26954;DHT22;14508;50.924;11.600;2023-05-10T08:37:13;17.10;99.90
26954;DHT22;14508;50.924;11.600;2023-05-10T08:39:41;17.10;99.90
26954;DHT22;14508;50.924;11.600;2023-05-10T08:42:09;17.10;99.90
26954;DHT22;14508;50.924;11.600;2023-05-10T08:44:37;17.10;99.90
26954;DHT22;14508;50.924;11.600;2023-05-10T08:47:06;17.10;99.90
26954;DHT22;14508;50.924;11.600;2023-05-10T08:49:37;17.10;99.90
26954;DHT22;14508;50.924;11.600;2023-05-10T08:52:05;17.20;99.90
26954;DHT22;14508;50.924;11.600;2023-05-10T08:54:34;17.30;99.90
26954;DHT22;14508;50.924;11.600;2023-05-10T08:57:03;17.40;99.90
26954;DHT22;14508;50.924;11.600;2023-05-10T08:59:31;17.50;99.90
26954;DHT22;14508;50.924;11.600;2023-05-10T09:01:59;17.60;99.90
26954;DHT22;14508;50.924;11.600;2023-05-10T09:04:28;17.60;99.90
26954;DHT22;14508;50.924;11.600;2023-05-10T09:06:58;17.70;99.90
26954;DHT22;14508;50.924;11.600;2023-05-10T09:09:26;17.80;99.90
26954;DHT22;14508;50.924;11.600;2023-05-10T09:11:54;17.90;99.90
26954;DHT22;14508;50.924;11.600;2023-05-10T09:14:24;17.90;99.90
26954;DHT22;14508;50.924;11.600;2023-05-10T09:16:53;17.90;99.90
26954;DHT22;14508;50.924;11.600;2023-05-10T09:19:21;18.00;99.90
26954;DHT22;14508;50.924;11.600;2023-05-10T09:21:50;18.10;99.90
26954;DHT22;14508;50.924;11.600;2023-05-10T09:24:19;18.20;99.90
26954;DHT22;14508;50.924;11.600;2023-05-10T09:26:48;18.30;99.90
26954;DHT22;14508;50.924;11.600;2023-05-10T09:29:16;18.40;99.90
26954;DHT22;14508;50.924;11.600;2023-05-10T09:31:45;18.30;99.90
26954;DHT22;14508;50.924;11.600;2023-05-10T09:34:17;18.30;99.90
26954;DHT22;14508;50.924;11.600;2023-05-10T09:36:53;18.20;99.90
26954;DHT22;14508;50.924;11.600;2023-05-10T09:39:30;18.20;99.90
26954;DHT22;14508;50.924;11.600;2023-05-10T09:41:58;18.20;99.90
26954;DHT22;14508;50.924;11.600;2023-05-10T09:44:27;18.20;99.90
26954;DHT22;14508;50.924;11.600;2023-05-10T09:46:55;18.20;99.90
26954;DHT22;14508;50.924;11.600;2023-05-10T09:49:23;18.30;99.90
26954;DHT22;14508;50.924;11.600;2023-05-10T09:52:00;18.40;99.90
26954;DHT22;14508;50.924;11.600;2023-05-10T09:54:30;18.70;99.90
26954;DHT22;14508;50.924;11.600;2023-05-10T09:56:59;18.90;99.90
26954;DHT22;14508;50.924;11.600;2023-05-10T09:59:28;19.10;99.90
26954;DHT22;14508;50.924;11.600;2023-05-10T10:01:57;19.10;99.90
26954;DHT22;14508;50.924;11.600;2023-05-10T10:04:26;19.20;99.90
26954;DHT22;14508;50.924;11.600;2023-05-10T10:07:01;19.30;99.90
26954;DHT22;14508;50.924;11.600;2023-05-10T10:09:32;19.30;99.90
26954;DHT22;14508;50.924;11.600;2023-05-10T10:12:01;19.30;99.90
26954;DHT22;14508;50.924;11.600;2023-05-10T10:14:30;19.40;99.90
26954;DHT22;14508;50.924;11.600;2023-05-10T10:17:00;19.40;99.90
26954;DHT22;14508;50.924;11.600;2023-05-10T10:19:34;19.40;99.90
26954;DHT22;14508;50.924;11.600;2023-05-10T10:22:03;19.40;99.90
26954;DHT22;14508;50.924;11.600;2023-05-10T10:24:33;19.40;99.90
26954;DHT22;14508;50.924;11.600;2023-05-10T10:27:09;19.30;99.90
26954;DHT22;14508;50.924;11.600;2023-05-10T10:29:44;19.10;99.90
26954;DHT22;14508;50.924;11.600;2023-05-10T10:32:22;18.90;99.90
26954;DHT22;14508;50.924;11.600;2023-05-10T10:34:54;18.90;99.90
26954;DHT22;14508;50.924;11.600;2023-05-10T10:37:22;18.80;99.90
26954;DHT22;14508;50.924;11.600;2023-05-10T10:39:51;18.90;99.90
26954;DHT22;14508;50.924;11.600;2023-05-10T10:42:43;18.80;99.90
26954;DHT22;14508;50.924;11.600;2023-05-10T10:45:12;18.70;99.90
26954;DHT22;14508;50.924;11.600;2023-05-10T10:47:41;18.70;99.90
26954;DHT22;14508;50.924;11.600;2023-05-10T10:50:10;18.50;99.90
26954;DHT22;14508;50.924;11.600;2023-05-10T10:52:40;18.40;99.90
26954;DHT22;14508;50.924;11.600;2023-05-10T10:55:11;18.20;99.90
26954;DHT22;14508;50.924;11.600;2023-05-10T10:57:47;18.00;99.90
26954;DHT22;14508;50.924;11.600;2023-05-10T11:00:21;17.90;99.90
26954;DHT22;14508;50.924;11.600;2023-05-10T11:02:51;17.80;99.90
26954;DHT22;14508;50.924;11.600;2023-05-10T11:05:37;17.60;99.90
26954;DHT22;14508;50.924;11.600;2023-05-10T11:08:18;17.60;99.90
26954;DHT22;14508;50.924;11.600;2023-05-10T11:11:02;17.60;99.90
26954;DHT22;14508;50.924;11.600;2023-05-10T11:13:32;17.70;99.90
26954;DHT22;14508;50.924;11.600;2023-05-10T11:16:19;17.80;99.90
26954;DHT22;14508;50.924;11.600;2023-05-10T11:18:58;17.80;99.90
26954;DHT22;14508;50.924;11.600;2023-05-10T11:21:26;17.90;99.90
26954;DHT22;14508;50.924;11.600;2023-05-10T11:23:55;17.80;99.90
26954;DHT22;14508;50.924;11.600;2023-05-10T11:26:30;17.70;99.90
26954;DHT22;14508;50.924;11.600;2023-05-10T11:29:01;17.50;99.90
26954;DHT22;14508;50.924;11.600;2023-05-10T11:31:31;17.30;99.90
26954;DHT22;14508;50.924;11.600;2023-05-10T11:34:00;17.10;99.90
26954;DHT22;14508;50.924;11.600;2023-05-10T11:36:32;16.80;99.90
26954;DHT22;14508;50.924;11.600;2023-05-10T11:39:00;16.60;99.90
26954;DHT22;14508;50.924;11.600;2023-05-10T11:41:30;16.50;99.90
26954;DHT22;14508;50.924;11.600;2023-05-10T11:43:58;16.40;99.90
26954;DHT22;14508;50.924;11.600;2023-05-10T11:46:27;16.30;99.90
26954;DHT22;14508;50.924;11.600;2023-05-10T11:48:58;16.30;99.90
26954;DHT22;14508;50.924;11.600;2023-05-10T11:51:28;16.30;99.90
26954;DHT22;14508;50.924;11.600;2023-05-10T11:53:57;16.30;99.90
26954;DHT22;14508;50.924;11.600;2023-05-10T11:56:25;16.40;99.90
26954;DHT22;14508;50.924;11.600;2023-05-10T11:58:55;16.40;99.90
26954;DHT22;14508;50.924;11.600;2023-05-10T12:01:24;16.40;99.90
26954;DHT22;14508;50.924;11.600;2023-05-10T12:03:56;16.40;99.90
26954;DHT22;14508;50.924;11.600;2023-05-10T12:06:27;16.40;99.90
26954;DHT22;14508;50.924;11.600;2023-05-10T12:08:55;16.40;99.90
26954;DHT22;14508;50.924;11.600;2023-05-10T12:11:25;16.50;99.90
26954;DHT22;14508;50.924;11.600;2023-05-10T12:13:55;16.50;99.90
26954;DHT22;14508;50.924;11.600;2023-05-10T12:16:25;16.50;99.90
26954;DHT22;14508;50.924;11.600;2023-05-10T12:18:55;16.50;99.90
26954;DHT22;14508;50.924;11.600;2023-05-10T12:21:23;16.60;99.90
26954;DHT22;14508;50.924;11.600;2023-05-10T12:23:52;16.70;99.90
26954;DHT22;14508;50.924;11.600;2023-05-10T12:26:22;16.80;99.90
26954;DHT22;14508;50.924;11.600;2023-05-10T12:28:50;16.90;99.90
26954;DHT22;14508;50.924;11.600;2023-05-10T12:31:19;17.00;99.90
26954;DHT22;14508;50.924;11.600;2023-05-10T12:33:47;17.10;99.90
26954;DHT22;14508;50.924;11.600;2023-05-10T12:36:16;17.30;99.90
26954;DHT22;14508;50.924;11.600;2023-05-10T12:38:45;17.40;99.90
26954;DHT22;14508;50.924;11.600;2023-05-10T12:41:16;17.60;99.90
26954;DHT22;14508;50.924;11.600;2023-05-10T12:43:44;17.90;99.90
26954;DHT22;14508;50.924;11.600;2023-05-10T12:46:13;18.20;99.90
26954;DHT22;14508;50.924;11.600;2023-05-10T12:48:44;18.40;99.90
26954;DHT22;14508;50.924;11.600;2023-05-10T12:51:12;18.50;99.90
26954;DHT22;14508;50.924;11.600;2023-05-10T12:53:43;18.80;99.90
26954;DHT22;14508;50.924;11.600;2023-05-10T12:56:15;19.10;99.90
26954;DHT22;14508;50.924;11.600;2023-05-10T12:58:43;19.40;99.90
26954;DHT22;14508;50.924;11.600;2023-05-10T13:01:14;19.60;99.90
26954;DHT22;14508;50.924;11.600;2023-05-10T13:03:44;19.80;99.90
26954;DHT22;14508;50.924;11.600;2023-05-10T13:06:13;19.60;99.00
26954;DHT22;14508;50.924;11.600;2023-05-10T13:08:41;19.40;99.30
26954;DHT22;14508;50.924;11.600;2023-05-10T13:11:08;19.20;99.30
26954;DHT22;14508;50.924;11.600;2023-05-10T13:13:36;18.90;99.90
26954;DHT22;14508;50.924;11.600;2023-05-10T13:16:05;18.50;99.90
26954;DHT22;14508;50.924;11.600;2023-05-10T13:18:33;18.30;99.90
26954;DHT22;14508;50.924;11.600;2023-05-10T13:21:02;18.10;99.90
26954;DHT22;14508;50.924;11.600;2023-05-10T13:23:31;17.90;99.90
26954;DHT22;14508;50.924;11.600;2023-05-10T13:25:59;17.60;99.90
26954;DHT22;14508;50.924;11.600;2023-05-10T13:28:27;17.40;99.90
26954;DHT22;14508;50.924;11.600;2023-05-10T13:30:56;17.30;99.90
26954;DHT22;14508;50.924;11.600;2023-05-10T13:33:24;17.20;99.90
26954;DHT22;14508;50.924;11.600;2023-05-10T13:35:51;17.10;99.90
26954;DHT22;14508;50.924;11.600;2023-05-10T13:38:22;17.10;99.90
26954;DHT22;14508;50.924;11.600;2023-05-10T13:40:50;17.10;99.90
26954;DHT22;14508;50.924;11.600;2023-05-10T13:43:19;17.10;99.90
26954;DHT22;14508;50.924;11.600;2023-05-10T13:45:47;17.10;99.90
26954;DHT22;14508;50.924;11.600;2023-05-10T13:48:15;17.00;99.90
26954;DHT22;14508;50.924;11.600;2023-05-10T13:50:43;17.00;99.90
26954;DHT22;14508;50.924;11.600;2023-05-10T13:53:11;16.90;99.90
26954;DHT22;14508;50.924;11.600;2023-05-10T13:55:41;17.00;99.90
26954;DHT22;14508;50.924;11.600;2023-05-10T13:58:09;17.00;99.90
26954;DHT22;14508;50.924;11.600;2023-05-10T14:00:37;16.90;99.90
26954;DHT22;14508;50.924;11.600;2023-05-10T14:03:05;17.00;99.90
26954;DHT22;14508;50.924;11.600;2023-05-10T14:05:36;17.10;99.90
26954;DHT22;14508;50.924;11.600;2023-05-10T14:08:03;17.20;99.90
26954;DHT22;14508;50.924;11.600;2023-05-10T14:10:31;17.30;99.90
26954;DHT22;14508;50.924;11.600;2023-05-10T14:13:01;17.40;99.90
26954;DHT22;14508;50.924;11.600;2023-05-10T14:15:29;17.60;99.90
26954;DHT22;14508;50.924;11.600;2023-05-10T14:17:57;17.70;99.90
26954;DHT22;14508;50.924;11.600;2023-05-10T14:20:25;17.80;99.90
26954;DHT22;14508;50.924;11.600;2023-05-10T14:22:53;18.00;99.90
26954;DHT22;14508;50.924;11.600;2023-05-10T14:25:21;18.10;99.90
26954;DHT22;14508;50.924;11.600;2023-05-10T14:27:49;18.30;99.90
26954;DHT22;14508;50.924;11.600;2023-05-10T14:30:18;18.40;99.90
26954;DHT22;14508;50.924;11.600;2023-05-10T14:32:46;18.50;99.90
26954;DHT22;14508;50.924;11.600;2023-05-10T14:35:14;18.70;99.90
26954;DHT22;14508;50.924;11.600;2023-05-10T14:37:45;18.90;99.90
26954;DHT22;14508;50.924;11.600;2023-05-10T14:40:13;19.00;99.90
26954;DHT22;14508;50.924;11.600;2023-05-10T14:42:42;19.30;99.90
26954;DHT22;14508;50.924;11.600;2023-05-10T14:45:10;19.60;99.90
26954;DHT22;14508;50.924;11.600;2023-05-10T14:47:40;19.90;99.90
26954;DHT22;14508;50.924;11.600;2023-05-10T14:50:08;20.20;97.10
26954;DHT22;14508;50.924;11.600;2023-05-10T14:52:42;20.40;93.90
26954;DHT22;14508;50.924;11.600;2023-05-10T14:55:10;20.60;90.10
26954;DHT22;14508;50.924;11.600;2023-05-10T14:57:38;20.80;89.40
26954;DHT22;14508;50.924;11.600;2023-05-10T15:00:07;21.00;89.70
26954;DHT22;14508;50.924;11.600;2023-05-10T15:02:35;21.20;91.10
26954;DHT22;14508;50.924;11.600;2023-05-10T15:05:06;21.30;90.90
26954;DHT22;14508;50.924;11.600;2023-05-10T15:07:34;21.30;87.90
26954;DHT22;14508;50.924;11.600;2023-05-10T15:10:02;21.10;86.50
26954;DHT22;14508;50.924;11.600;2023-05-10T15:12:30;21.00;87.00
26954;DHT22;14508;50.924;11.600;2023-05-10T15:14:58;21.00;87.60
26954;DHT22;14508;50.924;11.600;2023-05-10T15:17:26;20.90;87.10
26954;DHT22;14508;50.924;11.600;2023-05-10T15:19:54;20.70;84.70
26954;DHT22;14508;50.924;11.600;2023-05-10T15:22:23;20.50;88.70
26954;DHT22;14508;50.924;11.600;2023-05-10T15:24:51;20.30;91.10
26954;DHT22;14508;50.924;11.600;2023-05-10T15:27:19;20.10;92.20
26954;DHT22;14508;50.924;11.600;2023-05-10T15:29:47;20.00;93.50
26954;DHT22;14508;50.924;11.600;2023-05-10T15:32:14;19.90;94.00
26954;DHT22;14508;50.924;11.600;2023-05-10T15:34:42;19.90;94.30